< Typhoon 198718 1987 Season Typhoon 198720 >
Typhoon 198719 (KELLY)
General InformationTrack Information on Google MapsDetailed Wind InformationList of All Images || NewsDisaster Info.ResourceGoogle EarthGE AnimationAtom FeedGeoJSON
Detalied Best Track (Time Zone = UTC)
Year Month Day Hour Lat. Long. Pressure (hPa) Wind (kt) Class Image Chart
1987 10 9 00 11.5 137.0 1008 0 2 Image Chart
1987 10 9 06 11.9 137.1 1006 0 2 Image Chart
1987 10 9 12 12.2 137.3 1006 0 2 Image Chart
1987 10 9 18 12.5 137.5 1004 0 2 Image Chart
1987 10 10 00 12.9 137.7 1002 0 2 Image Chart
1987 10 10 06 13.3 137.9 1000 0 2 Image Chart
1987 10 10 12 13.7 138.0 998 0 2 Image Chart
1987 10 10 18 14.3 138.0 996 40 3 Image Chart
1987 10 11 00 14.8 138.0 994 40 3 Image Chart
1987 10 11 06 15.3 137.9 992 45 3 Image Chart
1987 10 11 12 15.9 137.6 990 45 3 Image Chart
1987 10 11 18 16.3 137.4 985 50 4 Image Chart
1987 10 12 00 16.6 137.3 980 55 4 Image Chart
1987 10 12 06 17.0 137.1 975 60 4 Image Chart
1987 10 12 12 17.5 137.0 970 65 5 Image Chart
1987 10 12 18 17.9 136.8 965 70 5 Image Chart
1987 10 13 00 18.4 136.6 960 75 5 Image Chart
1987 10 13 06 18.9 136.3 960 75 5 Image Chart
1987 10 13 12 19.6 136.0 960 75 5 Image Chart
1987 10 13 18 20.4 135.6 960 75 5 Image Chart
1987 10 14 00 21.3 135.2 960 75 5 Image Chart
1987 10 14 06 22.4 134.4 960 75 5 Image Chart
1987 10 14 12 23.3 133.7 960 75 5 Image Chart
1987 10 14 18 24.1 133.0 955 75 5 Image Chart
1987 10 15 00 24.8 132.3 955 75 5 Image Chart
1987 10 15 06 25.7 131.9 955 75 5 Image Chart
1987 10 15 12 26.6 131.7 955 75 5 Image Chart
1987 10 15 18 27.8 131.9 955 75 5 Image Chart
1987 10 16 00 29.2 132.3 960 75 5 Image Chart
1987 10 16 06 30.8 132.8 960 70 5 Image Chart
1987 10 16 12 32.5 133.6 965 70 5 Image Chart
1987 10 16 18 34.3 134.7 975 60 4 Image Chart
1987 10 17 00 36.9 136.8 986 55 4 Image Chart
1987 10 17 06 39.0 138.7 986 55 4 Image Chart
1987 10 17 12 41.3 141.2 986 0 6 Image Chart
1987 10 17 18 42.9 144.5 982 0 6 Image Chart
1987 10 18 00 44.1 148.0 980 0 6 Image Chart
1987 10 18 06 44.0 151.0 980 0 6 Image Chart
1987 10 18 12 43.9 155.7 980 0 6 Image Chart
1987 10 18 18 44.0 161.0 980 0 6 Image Chart
1987 10 19 00 45.0 168.0 984 0 6 Image Chart
1987 10 19 06 46.0 175.0 984 0 6 Image Chart
Japan Meteorological Agency Best Track Data | Correction Date : 1992-10-21
< Typhoon 198718 1987 Season Typhoon 198720 >

Help